createdAt,value
2019-03-22T00:02:51.947Z,50.90
2019-03-22T00:08:08.747Z,51.00
2019-03-22T00:13:25.655Z,50.90
2019-03-22T00:18:42.058Z,50.90
2019-03-22T00:23:58.871Z,50.90
2019-03-22T00:29:15.559Z,51.10
2019-03-22T00:34:32.053Z,51.20
2019-03-22T00:39:48.797Z,51.40
2019-03-22T00:45:05.908Z,51.60
2019-03-22T00:50:22.632Z,51.50
2019-03-22T00:55:39.491Z,51.60
2019-03-22T01:00:56.819Z,51.70
2019-03-22T01:06:14.867Z,51.80
2019-03-22T01:11:31.627Z,52.00
2019-03-22T01:16:48.103Z,52.10
2019-03-22T01:22:04.754Z,52.40
2019-03-22T01:27:21.811Z,52.70
2019-03-22T01:32:38.166Z,52.60
2019-03-22T01:37:55.082Z,52.40
2019-03-22T01:43:14.633Z,52.60
2019-03-22T01:48:31.063Z,52.60
2019-03-22T01:53:47.711Z,52.90
2019-03-22T01:59:04.253Z,52.90
2019-03-22T02:04:21.025Z,53.00
2019-03-22T02:09:37.897Z,53.10
2019-03-22T02:14:54.501Z,53.20
2019-03-22T02:20:11.833Z,53.40
2019-03-22T02:25:28.287Z,53.80
2019-03-22T02:30:45.129Z,54.20
2019-03-22T02:36:01.781Z,54.50
2019-03-22T02:41:18.222Z,54.40
2019-03-22T02:46:37.947Z,54.40
2019-03-22T02:51:54.749Z,54.50
2019-03-22T02:57:11.157Z,54.70
2019-03-22T03:02:27.766Z,54.70
2019-03-22T03:07:44.543Z,55.30
2019-03-22T03:13:01.051Z,55.20
2019-03-22T03:18:17.403Z,55.50
2019-03-22T03:23:33.880Z,55.70
2019-03-22T03:28:50.625Z,55.70
2019-03-22T03:34:07.238Z,56.00
2019-03-22T03:39:23.930Z,56.30
2019-03-22T03:44:40.460Z,56.30
2019-03-22T03:49:56.877Z,56.30
2019-03-22T03:55:13.537Z,56.40
2019-03-22T04:00:30.365Z,56.80
2019-03-22T04:05:46.845Z,56.80
2019-03-22T04:11:03.495Z,57.20
2019-03-22T04:16:20.155Z,57.70
2019-03-22T04:21:36.913Z,57.70
2019-03-22T04:26:53.579Z,58.00
2019-03-22T04:32:10.169Z,58.20
2019-03-22T04:37:26.399Z,58.50
2019-03-22T04:42:43.019Z,58.70
2019-03-22T04:48:19.010Z,59.00
2019-03-22T04:53:47.499Z,59.30
2019-03-22T04:59:18.379Z,59.80
2019-03-22T05:04:27.934Z,60.40
2019-03-22T05:09:46.157Z,60.90
2019-03-22T05:15:04.876Z,61.00
2019-03-22T05:20:22.752Z,61.70
2019-03-22T05:25:39.684Z,63.00
2019-03-22T05:31:57.313Z,62.90
2019-03-22T05:37:13.775Z,63.20
2019-03-22T05:42:30.522Z,65.00
2019-03-22T05:47:47.497Z,64.90
2019-03-22T05:53:04.191Z,65.10
2019-03-22T05:58:23.383Z,65.90
2019-03-22T06:03:40.425Z,66.60
2019-03-22T06:08:56.960Z,67.10
2019-03-22T06:14:13.351Z,67.10
2019-03-22T06:19:29.960Z,67.70
2019-03-22T06:24:46.720Z,68.30
2019-03-22T06:30:03.295Z,69.40
2019-03-22T06:35:20.735Z,69.80
2019-03-22T06:40:37.337Z,69.90
2019-03-22T06:45:54.301Z,71.90
2019-03-22T06:51:11.123Z,72.20
2019-03-22T06:56:28.081Z,72.60
2019-03-22T07:01:44.371Z,72.60
2019-03-22T07:07:00.811Z,72.90
2019-03-22T07:12:17.292Z,73.90
2019-03-22T07:17:33.823Z,74.60
2019-03-22T07:22:50.424Z,75.20
2019-03-22T07:28:06.881Z,76.30
2019-03-22T07:33:23.288Z,78.90
2019-03-22T07:38:40.104Z,78.60
2019-03-22T07:43:56.651Z,76.80
2019-03-22T07:49:13.369Z,78.80
2019-03-22T07:54:29.794Z,78.70
2019-03-22T07:59:46.808Z,79.60
2019-03-22T08:05:03.692Z,78.90
2019-03-22T08:10:20.463Z,77.50
2019-03-22T08:15:37.254Z,76.00
2019-03-22T08:20:54.488Z,76.40
2019-03-22T08:26:10.988Z,76.00
2019-03-22T08:31:27.521Z,76.10
2019-03-22T08:36:44.121Z,75.80
2019-03-22T08:42:00.615Z,73.40
2019-03-22T08:47:17.343Z,71.70
2019-03-22T08:52:34.712Z,72.10
2019-03-22T08:57:51.724Z,71.10
2019-03-22T09:03:08.440Z,70.00
2019-03-22T09:08:24.868Z,68.90
2019-03-22T09:13:41.465Z,68.40
2019-03-22T09:19:01.604Z,67.60
2019-03-22T09:24:19.148Z,66.80
2019-03-22T09:29:36.119Z,66.80
2019-03-22T09:34:53.069Z,67.20
2019-03-22T09:40:09.954Z,67.60
2019-03-22T09:45:26.813Z,68.10
2019-03-22T09:50:43.547Z,68.60
2019-03-22T09:55:59.616Z,68.90
2019-03-22T10:01:23.527Z,69.20
2019-03-22T10:06:35.014Z,69.50
2019-03-22T10:11:51.740Z,69.70
2019-03-22T10:17:08.224Z,69.90
2019-03-22T10:22:24.905Z,69.30
2019-03-22T10:27:41.399Z,68.90
2019-03-22T10:32:58.172Z,69.40
2019-03-22T10:38:16.494Z,69.30
2019-03-22T10:43:33.321Z,68.30
2019-03-22T10:48:49.869Z,68.30
2019-03-22T10:54:09.843Z,67.90
2019-03-22T10:59:27.412Z,67.70
2019-03-22T11:04:44.127Z,67.30
2019-03-22T11:10:00.725Z,67.20
2019-03-22T11:15:17.951Z,66.90
2019-03-22T11:20:34.789Z,66.50
2019-03-22T11:25:51.738Z,66.50
2019-03-22T11:31:08.610Z,66.20
2019-03-22T11:36:25.072Z,65.90
2019-03-22T11:41:41.849Z,65.80
2019-03-22T11:46:58.568Z,65.70
2019-03-22T11:52:15.430Z,65.80
2019-03-22T11:57:32.026Z,65.40
2019-03-22T12:02:49.832Z,64.90
2019-03-22T12:08:06.426Z,64.10
2019-03-22T12:13:23.148Z,64.10
2019-03-22T12:18:39.703Z,63.70
2019-03-22T12:23:56.788Z,63.80
2019-03-22T12:29:13.238Z,62.80
2019-03-22T12:34:30.041Z,62.70
2019-03-22T12:39:46.741Z,61.90
2019-03-22T12:45:03.197Z,61.50
2019-03-22T12:50:19.933Z,60.60
2019-03-22T12:55:36.605Z,59.90
2019-03-22T13:00:53.130Z,59.10
2019-03-22T13:06:14.728Z,58.70
2019-03-22T13:11:31.787Z,58.30
2019-03-22T13:16:48.595Z,57.60
2019-03-22T13:22:05.507Z,57.60
2019-03-22T13:27:22.221Z,57.60
2019-03-22T13:32:38.962Z,57.50
2019-03-22T13:37:55.843Z,56.90
2019-03-22T13:43:18.469Z,57.00
2019-03-22T13:48:41.358Z,56.70
2019-03-22T13:53:58.273Z,56.40
2019-03-22T13:59:14.910Z,56.00
2019-03-22T14:04:31.671Z,55.70
2019-03-22T14:09:48.238Z,55.30
2019-03-22T14:15:05.118Z,55.10
2019-03-22T14:20:22.019Z,54.60
2019-03-22T14:25:41.822Z,54.20
2019-03-22T14:30:58.194Z,53.60
2019-03-22T14:36:20.149Z,53.60
2019-03-22T14:41:36.931Z,53.50
2019-03-22T14:46:53.570Z,53.60
2019-03-22T14:52:10.325Z,53.30
2019-03-22T14:57:26.820Z,53.20
2019-03-22T15:02:43.816Z,53.00
2019-03-22T15:08:01.128Z,52.80
2019-03-22T15:13:19.946Z,52.40
2019-03-22T15:19:01.527Z,52.50
2019-03-22T15:24:37.159Z,52.30
2019-03-22T15:30:32.042Z,52.30
2019-03-22T15:36:02.989Z,52.20
2019-03-22T15:41:19.563Z,51.50
2019-03-22T15:46:36.528Z,51.10
2019-03-22T15:51:53.292Z,51.20
2019-03-22T15:57:17.426Z,51.10
2019-03-22T16:02:34.587Z,50.70
2019-03-22T16:07:51.426Z,50.50
2019-03-22T16:13:11.539Z,50.40
2019-03-22T16:18:28.529Z,50.20
2019-03-22T16:23:46.155Z,50.00
2019-03-22T16:29:02.835Z,50.40
2019-03-22T16:34:19.540Z,49.70
2019-03-22T16:39:37.112Z,49.50
2019-03-22T16:44:53.481Z,49.20
2019-03-22T16:50:25.066Z,49.20
2019-03-22T16:55:42.378Z,48.90
2019-03-22T17:00:59.725Z,48.90
2019-03-22T17:06:16.209Z,48.80
2019-03-22T17:11:35.953Z,48.90
2019-03-22T17:16:52.600Z,48.80
2019-03-22T17:22:09.374Z,48.90
2019-03-22T17:27:27.004Z,48.90
2019-03-22T17:32:43.976Z,48.80
2019-03-22T17:38:10.237Z,49.00
2019-03-22T17:43:29.995Z,49.00
2019-03-22T17:48:49.677Z,49.10
2019-03-22T17:59:45.494Z,49.10
2019-03-22T18:05:02.079Z,49.20
2019-03-22T18:10:18.396Z,49.20
2019-03-22T18:15:36.176Z,49.30
2019-03-22T18:20:52.671Z,49.30
2019-03-22T18:26:10.645Z,49.40
2019-03-22T18:31:27.344Z,49.50
2019-03-22T18:36:44.302Z,49.60
2019-03-22T18:42:00.854Z,49.70
2019-03-22T18:47:17.239Z,50.20
2019-03-22T18:53:01.902Z,49.80
2019-03-22T18:58:23.720Z,50.00
2019-03-22T19:03:49.023Z,49.90
2019-03-22T19:09:06.792Z,50.00
2019-03-22T19:14:29.111Z,50.00
2019-03-22T19:19:45.691Z,50.00
2019-03-22T19:25:03.744Z,49.90
2019-03-22T19:30:20.841Z,50.00
2019-03-22T19:35:40.075Z,49.90
2019-03-22T19:40:56.891Z,50.00
2019-03-22T19:46:14.060Z,50.00
2019-03-22T19:51:38.159Z,49.90
2019-03-22T19:56:54.979Z,49.90
2019-03-22T20:02:11.445Z,50.00
2019-03-22T20:07:27.977Z,50.00
2019-03-22T20:12:44.923Z,50.10
2019-03-22T20:18:01.611Z,50.10
2019-03-22T20:23:21.416Z,50.20
2019-03-22T20:28:38.044Z,50.30
2019-03-22T20:33:54.914Z,50.30
2019-03-22T20:39:14.040Z,50.40
2019-03-22T20:44:43.507Z,50.50
2019-03-22T20:50:00.004Z,50.60
2019-03-22T20:55:16.875Z,50.50
2019-03-22T21:00:33.708Z,50.60
2019-03-22T21:05:50.359Z,50.80
2019-03-22T21:11:06.995Z,50.80
2019-03-22T21:16:23.855Z,50.80
2019-03-22T21:21:40.570Z,51.20
2019-03-22T21:26:56.953Z,50.90
2019-03-22T21:32:13.847Z,51.00
2019-03-22T21:37:30.241Z,51.00
2019-03-22T21:42:47.024Z,51.10
2019-03-22T21:48:04.084Z,51.20
2019-03-22T21:53:20.802Z,51.40
2019-03-22T21:58:37.347Z,51.30
2019-03-22T22:03:54.861Z,51.40
2019-03-22T22:09:12.756Z,51.40
2019-03-22T22:14:40.169Z,51.40
2019-03-22T22:19:48.091Z,51.50
2019-03-22T22:25:05.534Z,51.70
2019-03-22T22:30:25.607Z,51.60
2019-03-22T22:35:43.089Z,51.70
2019-03-22T22:41:01.912Z,51.80
2019-03-22T22:46:18.671Z,51.80
2019-03-22T22:51:35.673Z,51.90
2019-03-22T22:56:53.134Z,52.00
2019-03-22T23:02:09.697Z,52.00
2019-03-22T23:07:26.348Z,52.10
2019-03-22T23:12:43.989Z,51.90
2019-03-22T23:18:00.685Z,52.20
2019-03-22T23:23:17.822Z,52.30
2019-03-22T23:28:35.900Z,52.40
2019-03-22T23:33:52.671Z,52.40
2019-03-22T23:39:11.031Z,52.60
2019-03-22T23:44:27.789Z,52.70
2019-03-22T23:49:44.654Z,52.60
2019-03-22T23:55:01.376Z,52.70
